sensor_id;sensor_type;location;lat;lon;timestamp;pressure;altitude;pressure_sealevel;temperature;humidity
43804;BME280;29430;52.924;-2.388;2023-03-23T00:02:39;96799.66;;;7.82;96.70
43804;BME280;29430;52.924;-2.388;2023-03-23T00:07:29;96795.88;;;7.78;96.43
43804;BME280;29430;52.924;-2.388;2023-03-23T00:12:21;96806.69;;;7.68;96.46
43804;BME280;29430;52.924;-2.388;2023-03-23T00:17:19;96806.44;;;7.59;95.77
43804;BME280;29430;52.924;-2.388;2023-03-23T00:22:09;96800.78;;;7.56;95.40
43804;BME280;29430;52.924;-2.388;2023-03-23T00:27:00;96820.19;;;7.52;95.63
43804;BME280;29430;52.924;-2.388;2023-03-23T00:31:51;96830.97;;;7.47;94.65
43804;BME280;29430;52.924;-2.388;2023-03-23T00:36:42;96826.38;;;7.43;93.80
43804;BME280;29430;52.924;-2.388;2023-03-23T00:41:33;96848.47;;;7.34;93.88
43804;BME280;29430;52.924;-2.388;2023-03-23T00:46:27;96853.59;;;7.31;93.74
43804;BME280;29430;52.924;-2.388;2023-03-23T00:51:18;96844.44;;;7.27;93.21
43804;BME280;29430;52.924;-2.388;2023-03-23T00:56:09;96858.44;;;7.24;92.94
43804;BME280;29430;52.924;-2.388;2023-03-23T01:01:00;96866.53;;;7.19;93.17
43804;BME280;29430;52.924;-2.388;2023-03-23T01:05:52;96863.81;;;7.13;92.48
43804;BME280;29430;52.924;-2.388;2023-03-23T01:10:43;96879.97;;;7.08;92.89
43804;BME280;29430;52.924;-2.388;2023-03-23T01:15:33;96883.47;;;7.04;92.73
43804;BME280;29430;52.924;-2.388;2023-03-23T01:20:24;96905.81;;;6.99;92.77
43804;BME280;29430;52.924;-2.388;2023-03-23T01:25:16;96902.84;;;6.95;93.22
43804;BME280;29430;52.924;-2.388;2023-03-23T01:30:10;96920.59;;;6.91;93.23
43804;BME280;29430;52.924;-2.388;2023-03-23T01:35:02;96922.22;;;6.92;93.45
43804;BME280;29430;52.924;-2.388;2023-03-23T01:39:53;96931.38;;;6.91;92.88
43804;BME280;29430;52.924;-2.388;2023-03-23T01:49:45;96942.94;;;6.87;92.42
43804;BME280;29430;52.924;-2.388;2023-03-23T01:54:37;96939.44;;;6.86;93.15
43804;BME280;29430;52.924;-2.388;2023-03-23T01:59:30;96934.00;;;6.81;92.80
43804;BME280;29430;52.924;-2.388;2023-03-23T02:04:23;96933.75;;;6.77;93.04
43804;BME280;29430;52.924;-2.388;2023-03-23T02:09:14;96933.19;;;6.75;92.56
43804;BME280;29430;52.924;-2.388;2023-03-23T02:14:08;96945.56;;;6.71;93.16
43804;BME280;29430;52.924;-2.388;2023-03-23T02:34:18;96937.59;;;6.44;93.74
43804;BME280;29430;52.924;-2.388;2023-03-23T02:44:12;96936.72;;;6.33;94.42
43804;BME280;29430;52.924;-2.388;2023-03-23T02:49:06;96942.59;;;6.30;95.22
43804;BME280;29430;52.924;-2.388;2023-03-23T02:53:58;96937.75;;;6.27;94.60
43804;BME280;29430;52.924;-2.388;2023-03-23T02:58:49;96932.06;;;6.23;95.62
43804;BME280;29430;52.924;-2.388;2023-03-23T03:03:40;96939.91;;;6.25;94.91
43804;BME280;29430;52.924;-2.388;2023-03-23T03:08:40;96932.09;;;6.28;94.53
43804;BME280;29430;52.924;-2.388;2023-03-23T03:23:38;96931.03;;;6.24;93.59
43804;BME280;29430;52.924;-2.388;2023-03-23T03:28:32;96939.03;;;6.19;93.79
43804;BME280;29430;52.924;-2.388;2023-03-23T03:33:24;96919.38;;;6.14;94.51
43804;BME280;29430;52.924;-2.388;2023-03-23T03:38:17;96925.00;;;6.12;95.18
43804;BME280;29430;52.924;-2.388;2023-03-23T03:43:08;96930.91;;;6.09;95.70
43804;BME280;29430;52.924;-2.388;2023-03-23T03:47:58;96924.19;;;6.12;96.55
43804;BME280;29430;52.924;-2.388;2023-03-23T03:52:50;96924.50;;;6.15;96.35
43804;BME280;29430;52.924;-2.388;2023-03-23T03:57:41;96930.41;;;6.17;97.31
43804;BME280;29430;52.924;-2.388;2023-03-23T04:02:31;96923.72;;;6.20;97.72
43804;BME280;29430;52.924;-2.388;2023-03-23T04:07:22;96934.78;;;6.23;98.01
43804;BME280;29430;52.924;-2.388;2023-03-23T04:12:16;96930.75;;;6.26;98.35
43804;BME280;29430;52.924;-2.388;2023-03-23T04:17:07;96933.19;;;6.27;98.43
43804;BME280;29430;52.924;-2.388;2023-03-23T04:21:59;96942.09;;;6.33;98.11
43804;BME280;29430;52.924;-2.388;2023-03-23T04:26:50;96933.47;;;6.31;98.68
43804;BME280;29430;52.924;-2.388;2023-03-23T04:31:44;96937.22;;;6.30;98.13
43804;BME280;29430;52.924;-2.388;2023-03-23T04:36:35;96935.31;;;6.25;98.44
43804;BME280;29430;52.924;-2.388;2023-03-23T04:41:26;96927.50;;;6.24;98.33
43804;BME280;29430;52.924;-2.388;2023-03-23T04:46:16;96928.59;;;6.23;98.50
43804;BME280;29430;52.924;-2.388;2023-03-23T04:51:08;96945.53;;;6.23;97.73
43804;BME280;29430;52.924;-2.388;2023-03-23T04:55:58;96937.19;;;6.25;97.59
43804;BME280;29430;52.924;-2.388;2023-03-23T05:00:51;96949.09;;;6.29;97.09
43804;BME280;29430;52.924;-2.388;2023-03-23T05:05:42;96938.84;;;6.31;96.69
43804;BME280;29430;52.924;-2.388;2023-03-23T05:10:33;96931.84;;;6.30;97.82
43804;BME280;29430;52.924;-2.388;2023-03-23T05:15:23;96919.47;;;6.29;97.73
43804;BME280;29430;52.924;-2.388;2023-03-23T05:20:15;96921.06;;;6.25;98.46
43804;BME280;29430;52.924;-2.388;2023-03-23T05:25:10;96920.00;;;6.26;98.45
43804;BME280;29430;52.924;-2.388;2023-03-23T05:30:01;96923.22;;;6.28;97.87
43804;BME280;29430;52.924;-2.388;2023-03-23T05:34:51;96911.34;;;6.24;98.75
43804;BME280;29430;52.924;-2.388;2023-03-23T05:39:42;96906.78;;;6.24;98.22
43804;BME280;29430;52.924;-2.388;2023-03-23T05:44:33;96903.28;;;6.24;97.96
43804;BME280;29430;52.924;-2.388;2023-03-23T05:49:23;96905.97;;;6.24;98.22
43804;BME280;29430;52.924;-2.388;2023-03-23T05:54:15;96903.00;;;6.25;97.89
43804;BME280;29430;52.924;-2.388;2023-03-23T05:59:06;96899.25;;;6.26;97.95
43804;BME280;29430;52.924;-2.388;2023-03-23T06:03:56;96895.25;;;6.29;97.74
43804;BME280;29430;52.924;-2.388;2023-03-23T06:08:48;96897.69;;;6.31;98.06
43804;BME280;29430;52.924;-2.388;2023-03-23T06:13:40;96889.88;;;6.34;98.11
43804;BME280;29430;52.924;-2.388;2023-03-23T06:18:31;96886.69;;;6.37;98.23
43804;BME280;29430;52.924;-2.388;2023-03-23T06:23:23;96892.06;;;6.42;98.12
43804;BME280;29430;52.924;-2.388;2023-03-23T06:28:14;96894.81;;;6.48;97.66
43804;BME280;29430;52.924;-2.388;2023-03-23T06:33:05;96896.72;;;6.52;96.95
43804;BME280;29430;52.924;-2.388;2023-03-23T06:37:59;96883.00;;;6.59;96.58
43804;BME280;29430;52.924;-2.388;2023-03-23T06:42:51;96883.59;;;6.66;96.37
43804;BME280;29430;52.924;-2.388;2023-03-23T06:47:42;96884.97;;;6.74;96.23
43804;BME280;29430;52.924;-2.388;2023-03-23T06:52:34;96874.75;;;6.81;95.70
43804;BME280;29430;52.924;-2.388;2023-03-23T06:57:25;96871.84;;;6.88;95.18
43804;BME280;29430;52.924;-2.388;2023-03-23T07:02:16;96872.91;;;6.92;95.52
43804;BME280;29430;52.924;-2.388;2023-03-23T07:07:08;96854.34;;;7.06;94.34
43804;BME280;29430;52.924;-2.388;2023-03-23T07:11:59;96845.25;;;7.32;94.15
43804;BME280;29430;52.924;-2.388;2023-03-23T07:16:49;96858.22;;;7.82;93.23
43804;BME280;29430;52.924;-2.388;2023-03-23T07:21:40;96873.00;;;8.25;90.87
43804;BME280;29430;52.924;-2.388;2023-03-23T07:26:31;96855.69;;;8.47;89.97
43804;BME280;29430;52.924;-2.388;2023-03-23T07:31:22;96860.47;;;8.76;88.52
43804;BME280;29430;52.924;-2.388;2023-03-23T07:36:13;96867.28;;;9.18;88.25
43804;BME280;29430;52.924;-2.388;2023-03-23T07:41:04;96862.41;;;9.60;85.29
43804;BME280;29430;52.924;-2.388;2023-03-23T07:45:55;96889.25;;;9.91;83.30
43804;BME280;29430;52.924;-2.388;2023-03-23T07:50:45;96887.34;;;10.20;82.80
43804;BME280;29430;52.924;-2.388;2023-03-23T07:55:37;96884.50;;;10.41;80.51
43804;BME280;29430;52.924;-2.388;2023-03-23T08:00:28;96876.72;;;10.59;81.64
43804;BME280;29430;52.924;-2.388;2023-03-23T08:05:19;96882.69;;;11.04;81.23
43804;BME280;29430;52.924;-2.388;2023-03-23T08:10:12;96874.06;;;11.59;77.86
43804;BME280;29430;52.924;-2.388;2023-03-23T08:15:04;96874.91;;;11.92;75.21
43804;BME280;29430;52.924;-2.388;2023-03-23T08:19:56;96877.72;;;12.34;73.83
43804;BME280;29430;52.924;-2.388;2023-03-23T08:24:48;96893.19;;;12.06;72.63
43804;BME280;29430;52.924;-2.388;2023-03-23T08:29:38;96899.72;;;11.86;74.13
43804;BME280;29430;52.924;-2.388;2023-03-23T08:34:31;96884.41;;;11.76;74.95
43804;BME280;29430;52.924;-2.388;2023-03-23T08:39:22;96876.53;;;11.93;74.90
43804;BME280;29430;52.924;-2.388;2023-03-23T08:44:13;96884.91;;;12.30;74.01
43804;BME280;29430;52.924;-2.388;2023-03-23T08:49:04;96887.13;;;12.56;72.45
43804;BME280;29430;52.924;-2.388;2023-03-23T08:53:55;96887.22;;;12.50;71.90
43804;BME280;29430;52.924;-2.388;2023-03-23T08:58:46;96878.97;;;12.83;72.94
43804;BME280;29430;52.924;-2.388;2023-03-23T09:03:37;96902.25;;;13.17;69.50
43804;BME280;29430;52.924;-2.388;2023-03-23T09:08:29;96895.50;;;13.29;69.47
43804;BME280;29430;52.924;-2.388;2023-03-23T09:13:20;96903.06;;;13.68;68.84
43804;BME280;29430;52.924;-2.388;2023-03-23T09:18:11;96902.41;;;14.08;66.73
43804;BME280;29430;52.924;-2.388;2023-03-23T09:23:02;96898.84;;;14.21;65.56
43804;BME280;29430;52.924;-2.388;2023-03-23T09:27:58;96917.00;;;14.35;66.03
43804;BME280;29430;52.924;-2.388;2023-03-23T09:32:49;96934.38;;;14.39;66.06
43804;BME280;29430;52.924;-2.388;2023-03-23T09:37:40;96946.03;;;14.08;64.25
43804;BME280;29430;52.924;-2.388;2023-03-23T09:53:21;96944.78;;;13.27;69.28
43804;BME280;29430;52.924;-2.388;2023-03-23T09:58:30;96938.34;;;13.37;66.21
43804;BME280;29430;52.924;-2.388;2023-03-23T10:03:34;96937.16;;;14.02;67.66
43804;BME280;29430;52.924;-2.388;2023-03-23T10:08:30;96959.41;;;14.41;61.48
43804;BME280;29430;52.924;-2.388;2023-03-23T10:23:55;96952.78;;;14.10;60.67
43804;BME280;29430;52.924;-2.388;2023-03-23T10:28:51;96950.34;;;13.86;62.48
43804;BME280;29430;52.924;-2.388;2023-03-23T10:33:49;96941.81;;;14.02;61.41
43804;BME280;29430;52.924;-2.388;2023-03-23T10:38:47;96956.03;;;13.62;63.63
43804;BME280;29430;52.924;-2.388;2023-03-23T10:43:40;96973.00;;;13.31;67.34
43804;BME280;29430;52.924;-2.388;2023-03-23T10:48:37;96978.66;;;13.07;69.76
43804;BME280;29430;52.924;-2.388;2023-03-23T10:53:42;96975.09;;;12.93;69.73
43804;BME280;29430;52.924;-2.388;2023-03-23T10:58:35;96976.00;;;12.88;70.65
43804;BME280;29430;52.924;-2.388;2023-03-23T11:03:38;96962.72;;;13.14;70.07
43804;BME280;29430;52.924;-2.388;2023-03-23T11:08:33;96959.00;;;13.66;69.39
43804;BME280;29430;52.924;-2.388;2023-03-23T11:13:32;96957.00;;;14.39;65.18
43804;BME280;29430;52.924;-2.388;2023-03-23T11:18:25;96961.91;;;14.74;61.41
43804;BME280;29430;52.924;-2.388;2023-03-23T11:23:38;96965.72;;;14.50;61.28
43804;BME280;29430;52.924;-2.388;2023-03-23T11:28:34;96959.72;;;14.62;60.39
43804;BME280;29430;52.924;-2.388;2023-03-23T11:33:29;96946.41;;;14.60;58.43
43804;BME280;29430;52.924;-2.388;2023-03-23T11:38:21;96962.34;;;14.44;60.54
43804;BME280;29430;52.924;-2.388;2023-03-23T11:43:15;96969.28;;;14.28;61.04
43804;BME280;29430;52.924;-2.388;2023-03-23T11:53:32;96963.81;;;14.50;63.31
43804;BME280;29430;52.924;-2.388;2023-03-23T11:58:24;96926.97;;;14.93;58.56
43804;BME280;29430;52.924;-2.388;2023-03-23T12:03:17;96941.97;;;15.04;58.92
43804;BME280;29430;52.924;-2.388;2023-03-23T12:23:38;96967.41;;;14.60;57.87
43804;BME280;29430;52.924;-2.388;2023-03-23T12:44:41;96913.25;;;14.44;57.01
43804;BME280;29430;52.924;-2.388;2023-03-23T12:49:41;96930.03;;;14.38;56.94
43804;BME280;29430;52.924;-2.388;2023-03-23T12:54:40;96930.38;;;14.13;57.76
43804;BME280;29430;52.924;-2.388;2023-03-23T12:59:42;96918.38;;;14.01;58.59
43804;BME280;29430;52.924;-2.388;2023-03-23T13:04:39;96906.31;;;14.15;59.30
43804;BME280;29430;52.924;-2.388;2023-03-23T13:24:42;96907.72;;;14.36;55.43
43804;BME280;29430;52.924;-2.388;2023-03-23T13:29:33;96901.03;;;14.19;54.84
43804;BME280;29430;52.924;-2.388;2023-03-23T13:34:26;96895.72;;;14.14;56.37
43804;BME280;29430;52.924;-2.388;2023-03-23T13:39:47;96899.94;;;14.20;56.83
43804;BME280;29430;52.924;-2.388;2023-03-23T13:49:56;96884.81;;;14.37;54.52
43804;BME280;29430;52.924;-2.388;2023-03-23T13:54:47;96874.28;;;14.21;54.62
43804;BME280;29430;52.924;-2.388;2023-03-23T13:59:54;96871.06;;;14.19;55.61
43804;BME280;29430;52.924;-2.388;2023-03-23T14:04:46;96875.66;;;14.10;55.87
43804;BME280;29430;52.924;-2.388;2023-03-23T14:09:41;96880.84;;;13.97;57.37
43804;BME280;29430;52.924;-2.388;2023-03-23T14:14:56;96871.47;;;13.81;58.68
43804;BME280;29430;52.924;-2.388;2023-03-23T14:19:48;96865.75;;;13.69;59.65
43804;BME280;29430;52.924;-2.388;2023-03-23T14:24:40;96862.97;;;13.83;59.48
43804;BME280;29430;52.924;-2.388;2023-03-23T14:29:31;96870.47;;;13.77;61.22
43804;BME280;29430;52.924;-2.388;2023-03-23T14:34:25;96869.47;;;13.73;63.57
43804;BME280;29430;52.924;-2.388;2023-03-23T14:39:30;96849.13;;;13.70;62.95
43804;BME280;29430;52.924;-2.388;2023-03-23T14:44:28;96836.16;;;13.76;61.43
43804;BME280;29430;52.924;-2.388;2023-03-23T14:49:26;96829.41;;;13.96;60.79
43804;BME280;29430;52.924;-2.388;2023-03-23T14:54:37;96822.34;;;13.95;58.82
43804;BME280;29430;52.924;-2.388;2023-03-23T14:59:30;96832.13;;;13.96;58.63
43804;BME280;29430;52.924;-2.388;2023-03-23T15:04:24;96835.59;;;13.88;58.37
43804;BME280;29430;52.924;-2.388;2023-03-23T15:09:18;96804.69;;;13.70;59.06
43804;BME280;29430;52.924;-2.388;2023-03-23T15:14:14;96801.94;;;13.61;60.16
43804;BME280;29430;52.924;-2.388;2023-03-23T15:24:31;96793.06;;;13.55;57.95
43804;BME280;29430;52.924;-2.388;2023-03-23T15:29:22;96789.50;;;13.46;58.35
43804;BME280;29430;52.924;-2.388;2023-03-23T15:34:21;96806.25;;;13.39;60.12
43804;BME280;29430;52.924;-2.388;2023-03-23T15:39:14;96805.66;;;13.42;60.50
43804;BME280;29430;52.924;-2.388;2023-03-23T15:44:18;96797.47;;;13.42;60.82
43804;BME280;29430;52.924;-2.388;2023-03-23T15:49:11;96791.34;;;13.37;60.37
43804;BME280;29430;52.924;-2.388;2023-03-23T15:54:09;96777.94;;;13.26;59.52
43804;BME280;29430;52.924;-2.388;2023-03-23T15:59:02;96782.88;;;13.24;57.82
43804;BME280;29430;52.924;-2.388;2023-03-23T16:04:07;96780.28;;;13.19;57.72
43804;BME280;29430;52.924;-2.388;2023-03-23T16:09:01;96783.41;;;13.13;58.04
43804;BME280;29430;52.924;-2.388;2023-03-23T16:13:54;96765.72;;;13.01;59.10
43804;BME280;29430;52.924;-2.388;2023-03-23T16:24:18;96756.09;;;12.81;61.00
43804;BME280;29430;52.924;-2.388;2023-03-23T16:29:12;96742.91;;;12.75;61.56
43804;BME280;29430;52.924;-2.388;2023-03-23T16:34:24;96726.91;;;12.73;62.45
43804;BME280;29430;52.924;-2.388;2023-03-23T16:39:19;96735.16;;;12.68;62.31
43804;BME280;29430;52.924;-2.388;2023-03-23T16:44:11;96727.13;;;12.63;63.58
43804;BME280;29430;52.924;-2.388;2023-03-23T16:49:02;96715.22;;;12.59;64.15
43804;BME280;29430;52.924;-2.388;2023-03-23T16:53:54;96714.44;;;12.58;64.40
43804;BME280;29430;52.924;-2.388;2023-03-23T16:58:46;96702.56;;;12.54;67.95
43804;BME280;29430;52.924;-2.388;2023-03-23T17:03:38;96695.84;;;12.38;71.49
43804;BME280;29430;52.924;-2.388;2023-03-23T17:08:33;96692.94;;;12.20;73.24
43804;BME280;29430;52.924;-2.388;2023-03-23T17:13:26;96715.88;;;12.00;73.81
43804;BME280;29430;52.924;-2.388;2023-03-23T17:18:18;96737.78;;;11.90;73.03
43804;BME280;29430;52.924;-2.388;2023-03-23T17:23:10;96732.53;;;11.79;72.39
43804;BME280;29430;52.924;-2.388;2023-03-23T17:28:01;96730.88;;;11.64;72.63
43804;BME280;29430;52.924;-2.388;2023-03-23T17:32:57;96715.09;;;11.53;73.79
43804;BME280;29430;52.924;-2.388;2023-03-23T17:37:48;96698.09;;;11.47;74.52
43804;BME280;29430;52.924;-2.388;2023-03-23T17:42:40;96694.63;;;11.41;74.99
43804;BME280;29430;52.924;-2.388;2023-03-23T17:47:32;96676.63;;;11.32;75.72
43804;BME280;29430;52.924;-2.388;2023-03-23T17:52:24;96694.69;;;11.22;76.52
43804;BME280;29430;52.924;-2.388;2023-03-23T17:57:16;96701.91;;;11.13;77.23
43804;BME280;29430;52.924;-2.388;2023-03-23T18:02:09;96687.84;;;11.11;78.38
43804;BME280;29430;52.924;-2.388;2023-03-23T18:07:01;96686.50;;;11.08;79.17
43804;BME280;29430;52.924;-2.388;2023-03-23T18:11:53;96685.47;;;11.04;79.66
43804;BME280;29430;52.924;-2.388;2023-03-23T18:16:47;96663.16;;;10.93;80.25
43804;BME280;29430;52.924;-2.388;2023-03-23T18:21:38;96680.69;;;10.82;80.79
43804;BME280;29430;52.924;-2.388;2023-03-23T18:26:30;96676.22;;;10.72;80.84
43804;BME280;29430;52.924;-2.388;2023-03-23T18:31:22;96667.19;;;10.58;80.12
43804;BME280;29430;52.924;-2.388;2023-03-23T18:36:16;96671.75;;;10.44;80.77
43804;BME280;29430;52.924;-2.388;2023-03-23T18:41:09;96664.78;;;10.37;80.36
43804;BME280;29430;52.924;-2.388;2023-03-23T18:46:02;96647.03;;;10.26;80.47
43804;BME280;29430;52.924;-2.388;2023-03-23T18:50:55;96642.56;;;10.16;80.17
43804;BME280;29430;52.924;-2.388;2023-03-23T18:55:49;96657.56;;;10.09;80.89
43804;BME280;29430;52.924;-2.388;2023-03-23T19:00:42;96666.56;;;10.04;80.75
43804;BME280;29430;52.924;-2.388;2023-03-23T19:05:35;96669.31;;;9.99;81.23
43804;BME280;29430;52.924;-2.388;2023-03-23T19:10:29;96674.28;;;9.92;81.06
43804;BME280;29430;52.924;-2.388;2023-03-23T19:15:21;96669.19;;;9.85;81.08
43804;BME280;29430;52.924;-2.388;2023-03-23T19:20:14;96676.88;;;9.78;81.02
43804;BME280;29430;52.924;-2.388;2023-03-23T19:25:26;96687.00;;;9.67;81.04
43804;BME280;29430;52.924;-2.388;2023-03-23T19:30:18;96682.97;;;9.64;81.49
43804;BME280;29430;52.924;-2.388;2023-03-23T19:35:10;96679.78;;;9.57;81.32
43804;BME280;29430;52.924;-2.388;2023-03-23T19:40:02;96677.13;;;9.52;81.44
43804;BME280;29430;52.924;-2.388;2023-03-23T19:45:16;96676.16;;;9.43;82.36
43804;BME280;29430;52.924;-2.388;2023-03-23T19:50:08;96678.94;;;9.32;82.26
43804;BME280;29430;52.924;-2.388;2023-03-23T19:55:00;96670.38;;;9.25;82.94
43804;BME280;29430;52.924;-2.388;2023-03-23T19:59:52;96670.72;;;9.13;83.31
43804;BME280;29430;52.924;-2.388;2023-03-23T20:04:44;96671.63;;;9.04;83.12
43804;BME280;29430;52.924;-2.388;2023-03-23T20:09:36;96674.94;;;8.95;83.32
43804;BME280;29430;52.924;-2.388;2023-03-23T20:14:28;96678.25;;;8.87;84.03
43804;BME280;29430;52.924;-2.388;2023-03-23T20:19:20;96660.44;;;8.81;85.07
43804;BME280;29430;52.924;-2.388;2023-03-23T20:24:12;96666.41;;;8.78;85.09
43804;BME280;29430;52.924;-2.388;2023-03-23T20:29:04;96654.84;;;8.72;85.17
43804;BME280;29430;52.924;-2.388;2023-03-23T20:34:01;96656.28;;;8.59;85.87
43804;BME280;29430;52.924;-2.388;2023-03-23T20:38:54;96656.59;;;8.53;86.37
43804;BME280;29430;52.924;-2.388;2023-03-23T20:43:47;96663.41;;;8.45;86.89
43804;BME280;29430;52.924;-2.388;2023-03-23T20:48:39;96669.88;;;8.44;87.04
43804;BME280;29430;52.924;-2.388;2023-03-23T20:53:31;96687.69;;;8.40;87.04
43804;BME280;29430;52.924;-2.388;2023-03-23T20:58:24;96688.25;;;8.37;87.31
43804;BME280;29430;52.924;-2.388;2023-03-23T21:03:17;96692.06;;;8.31;87.79
43804;BME280;29430;52.924;-2.388;2023-03-23T21:08:09;96687.53;;;8.21;88.38
43804;BME280;29430;52.924;-2.388;2023-03-23T21:13:03;96694.31;;;8.13;89.40
43804;BME280;29430;52.924;-2.388;2023-03-23T21:17:55;96680.06;;;8.02;89.76
43804;BME280;29430;52.924;-2.388;2023-03-23T21:22:46;96694.94;;;7.95;90.84
43804;BME280;29430;52.924;-2.388;2023-03-23T21:27:38;96675.50;;;7.87;91.25
43804;BME280;29430;52.924;-2.388;2023-03-23T21:32:30;96685.53;;;7.82;92.19
43804;BME280;29430;52.924;-2.388;2023-03-23T21:37:22;96685.25;;;7.78;92.92
43804;BME280;29430;52.924;-2.388;2023-03-23T21:42:14;96683.09;;;7.75;93.46
43804;BME280;29430;52.924;-2.388;2023-03-23T21:47:05;96676.63;;;7.76;93.89
43804;BME280;29430;52.924;-2.388;2023-03-23T21:51:57;96664.78;;;7.77;94.68
43804;BME280;29430;52.924;-2.388;2023-03-23T21:56:49;96673.91;;;7.81;95.38
43804;BME280;29430;52.924;-2.388;2023-03-23T22:01:41;96673.38;;;7.84;96.41
43804;BME280;29430;52.924;-2.388;2023-03-23T22:06:33;96653.41;;;7.85;97.34
43804;BME280;29430;52.924;-2.388;2023-03-23T22:11:27;96670.66;;;7.84;97.13
43804;BME280;29430;52.924;-2.388;2023-03-23T22:16:22;96663.91;;;7.87;96.97
43804;BME280;29430;52.924;-2.388;2023-03-23T22:21:15;96677.66;;;7.91;96.69
43804;BME280;29430;52.924;-2.388;2023-03-23T22:26:08;96693.06;;;7.90;96.64
43804;BME280;29430;52.924;-2.388;2023-03-23T22:31:03;96698.19;;;7.86;96.05
43804;BME280;29430;52.924;-2.388;2023-03-23T22:35:56;96705.22;;;7.82;96.86
43804;BME280;29430;52.924;-2.388;2023-03-23T22:40:55;96703.06;;;7.79;96.80
43804;BME280;29430;52.924;-2.388;2023-03-23T22:45:49;96696.06;;;7.73;98.13
43804;BME280;29430;52.924;-2.388;2023-03-23T22:50:42;96696.88;;;7.74;98.81
43804;BME280;29430;52.924;-2.388;2023-03-23T22:55:33;96694.19;;;7.68;98.81
43804;BME280;29430;52.924;-2.388;2023-03-23T23:00:25;96696.09;;;7.68;98.62
43804;BME280;29430;52.924;-2.388;2023-03-23T23:05:17;96709.56;;;7.73;98.65
43804;BME280;29430;52.924;-2.388;2023-03-23T23:10:09;96719.78;;;7.81;98.46
43804;BME280;29430;52.924;-2.388;2023-03-23T23:15:03;96724.09;;;7.93;96.69
43804;BME280;29430;52.924;-2.388;2023-03-23T23:19:57;96729.72;;;8.01;96.13
43804;BME280;29430;52.924;-2.388;2023-03-23T23:24:49;96736.72;;;8.02;93.52
43804;BME280;29430;52.924;-2.388;2023-03-23T23:29:40;96742.69;;;7.99;91.31
43804;BME280;29430;52.924;-2.388;2023-03-23T23:34:32;96737.56;;;7.98;90.88
43804;BME280;29430;52.924;-2.388;2023-03-23T23:39:25;96740.28;;;7.93;92.26
43804;BME280;29430;52.924;-2.388;2023-03-23T23:44:18;96741.09;;;7.83;93.69
43804;BME280;29430;52.924;-2.388;2023-03-23T23:49:09;96729.81;;;7.76;93.63
43804;BME280;29430;52.924;-2.388;2023-03-23T23:54:01;96740.31;;;7.72;92.95
43804;BME280;29430;52.924;-2.388;2023-03-23T23:58:55;96743.03;;;7.67;91.22
